sensor_id;sensor_type;location;lat;lon;timestamp;temperature;humidity
12426;DHT22;6277;49.824;9.562;2023-03-23T00:00:05;16.40;54.80
12426;DHT22;6277;49.824;9.562;2023-03-23T00:02:31;16.40;54.80
12426;DHT22;6277;49.824;9.562;2023-03-23T00:05:01;16.40;54.80
12426;DHT22;6277;49.824;9.562;2023-03-23T00:07:29;16.40;54.90
12426;DHT22;6277;49.824;9.562;2023-03-23T00:09:55;16.40;54.90
12426;DHT22;6277;49.824;9.562;2023-03-23T00:12:26;16.40;55.50
12426;DHT22;6277;49.824;9.562;2023-03-23T00:15:02;16.40;55.00
12426;DHT22;6277;49.824;9.562;2023-03-23T00:17:29;16.40;55.00
12426;DHT22;6277;49.824;9.562;2023-03-23T00:19:55;16.40;55.00
12426;DHT22;6277;49.824;9.562;2023-03-23T00:22:22;16.40;55.10
12426;DHT22;6277;49.824;9.562;2023-03-23T00:24:50;16.40;55.10
12426;DHT22;6277;49.824;9.562;2023-03-23T00:27:17;16.40;55.20
12426;DHT22;6277;49.824;9.562;2023-03-23T00:29:43;16.40;55.20
12426;DHT22;6277;49.824;9.562;2023-03-23T00:32:11;16.30;55.20
12426;DHT22;6277;49.824;9.562;2023-03-23T00:34:43;16.30;55.20
12426;DHT22;6277;49.824;9.562;2023-03-23T00:37:11;16.30;55.20
12426;DHT22;6277;49.824;9.562;2023-03-23T00:39:38;16.30;55.20
12426;DHT22;6277;49.824;9.562;2023-03-23T00:42:04;16.30;55.20
12426;DHT22;6277;49.824;9.562;2023-03-23T00:44:32;16.30;55.20
12426;DHT22;6277;49.824;9.562;2023-03-23T00:46:58;16.30;55.30
12426;DHT22;6277;49.824;9.562;2023-03-23T00:49:25;16.30;55.20
12426;DHT22;6277;49.824;9.562;2023-03-23T00:51:55;16.30;55.20
12426;DHT22;6277;49.824;9.562;2023-03-23T00:54:22;16.30;55.30
12426;DHT22;6277;49.824;9.562;2023-03-23T00:56:49;16.30;55.30
12426;DHT22;6277;49.824;9.562;2023-03-23T00:59:14;16.20;55.30
12426;DHT22;6277;49.824;9.562;2023-03-23T01:01:40;16.20;55.40
12426;DHT22;6277;49.824;9.562;2023-03-23T01:04:06;16.20;55.40
12426;DHT22;6277;49.824;9.562;2023-03-23T01:06:35;16.20;55.40
12426;DHT22;6277;49.824;9.562;2023-03-23T01:09:07;16.20;55.40
12426;DHT22;6277;49.824;9.562;2023-03-23T01:11:34;16.20;56.00
12426;DHT22;6277;49.824;9.562;2023-03-23T01:13:59;16.20;55.50
12426;DHT22;6277;49.824;9.562;2023-03-23T01:16:25;16.10;55.40
12426;DHT22;6277;49.824;9.562;2023-03-23T01:18:51;16.10;55.50
12426;DHT22;6277;49.824;9.562;2023-03-23T01:21:18;16.10;55.40
12426;DHT22;6277;49.824;9.562;2023-03-23T01:23:45;16.00;55.40
12426;DHT22;6277;49.824;9.562;2023-03-23T01:26:14;16.00;55.50
12426;DHT22;6277;49.824;9.562;2023-03-23T01:28:40;15.90;55.50
12426;DHT22;6277;49.824;9.562;2023-03-23T01:31:08;15.80;55.50
12426;DHT22;6277;49.824;9.562;2023-03-23T01:33:34;15.80;55.70
12426;DHT22;6277;49.824;9.562;2023-03-23T01:36:06;15.80;55.70
12426;DHT22;6277;49.824;9.562;2023-03-23T01:38:33;15.70;55.80
12426;DHT22;6277;49.824;9.562;2023-03-23T01:40:59;15.70;55.80
12426;DHT22;6277;49.824;9.562;2023-03-23T01:43:26;15.60;55.90
12426;DHT22;6277;49.824;9.562;2023-03-23T01:45:52;15.60;55.90
12426;DHT22;6277;49.824;9.562;2023-03-23T01:48:30;15.60;56.00
12426;DHT22;6277;49.824;9.562;2023-03-23T01:51:10;15.60;56.10
12426;DHT22;6277;49.824;9.562;2023-03-23T01:53:44;15.60;56.20
12426;DHT22;6277;49.824;9.562;2023-03-23T01:56:13;15.50;56.10
12426;DHT22;6277;49.824;9.562;2023-03-23T01:58:40;15.50;56.10
12426;DHT22;6277;49.824;9.562;2023-03-23T02:01:10;15.50;56.10
12426;DHT22;6277;49.824;9.562;2023-03-23T02:03:38;15.40;56.10
12426;DHT22;6277;49.824;9.562;2023-03-23T02:06:05;15.40;56.10
12426;DHT22;6277;49.824;9.562;2023-03-23T02:08:32;15.30;56.00
12426;DHT22;6277;49.824;9.562;2023-03-23T02:10:59;15.30;56.10
12426;DHT22;6277;49.824;9.562;2023-03-23T02:13:26;15.30;56.20
12426;DHT22;6277;49.824;9.562;2023-03-23T02:21:27;15.00;56.30
12426;DHT22;6277;49.824;9.562;2023-03-23T02:35:22;14.80;56.70
12426;DHT22;6277;49.824;9.562;2023-03-23T02:37:52;14.80;56.70
12426;DHT22;6277;49.824;9.562;2023-03-23T02:40:25;14.80;56.80
12426;DHT22;6277;49.824;9.562;2023-03-23T02:42:54;14.80;56.90
12426;DHT22;6277;49.824;9.562;2023-03-23T02:45:22;14.70;56.90
12426;DHT22;6277;49.824;9.562;2023-03-23T02:47:51;14.70;56.90
12426;DHT22;6277;49.824;9.562;2023-03-23T02:50:20;14.70;56.90
12426;DHT22;6277;49.824;9.562;2023-03-23T02:52:48;14.70;57.00
12426;DHT22;6277;49.824;9.562;2023-03-23T02:55:16;14.70;57.10
12426;DHT22;6277;49.824;9.562;2023-03-23T02:57:43;14.80;57.10
12426;DHT22;6277;49.824;9.562;2023-03-23T03:00:16;14.80;57.20
12426;DHT22;6277;49.824;9.562;2023-03-23T03:02:48;14.80;57.20
12426;DHT22;6277;49.824;9.562;2023-03-23T03:11:03;14.90;57.50
12426;DHT22;6277;49.824;9.562;2023-03-23T03:19:26;14.90;57.40
12426;DHT22;6277;49.824;9.562;2023-03-23T03:21:54;15.00;57.40
12426;DHT22;6277;49.824;9.562;2023-03-23T03:24:24;15.00;57.40
12426;DHT22;6277;49.824;9.562;2023-03-23T03:26:54;15.00;57.50
12426;DHT22;6277;49.824;9.562;2023-03-23T03:29:29;15.10;57.70
12426;DHT22;6277;49.824;9.562;2023-03-23T03:31:56;15.10;57.70
12426;DHT22;6277;49.824;9.562;2023-03-23T03:34:24;15.10;57.60
12426;DHT22;6277;49.824;9.562;2023-03-23T03:36:52;15.10;57.50
12426;DHT22;6277;49.824;9.562;2023-03-23T03:39:19;15.10;57.50
12426;DHT22;6277;49.824;9.562;2023-03-23T03:41:46;15.10;57.50
12426;DHT22;6277;49.824;9.562;2023-03-23T03:44:11;15.20;57.50
12426;DHT22;6277;49.824;9.562;2023-03-23T03:46:38;15.20;57.50
12426;DHT22;6277;49.824;9.562;2023-03-23T03:49:06;15.20;57.40
12426;DHT22;6277;49.824;9.562;2023-03-23T03:51:32;15.20;57.50
12426;DHT22;6277;49.824;9.562;2023-03-23T03:53:58;15.20;57.40
12426;DHT22;6277;49.824;9.562;2023-03-23T03:56:24;15.20;57.40
12426;DHT22;6277;49.824;9.562;2023-03-23T03:58:52;15.30;57.50
12426;DHT22;6277;49.824;9.562;2023-03-23T04:01:19;15.30;57.50
12426;DHT22;6277;49.824;9.562;2023-03-23T04:03:48;15.30;57.50
12426;DHT22;6277;49.824;9.562;2023-03-23T04:06:14;15.30;57.40
12426;DHT22;6277;49.824;9.562;2023-03-23T04:08:40;15.30;57.40
12426;DHT22;6277;49.824;9.562;2023-03-23T04:11:08;15.30;58.00
12426;DHT22;6277;49.824;9.562;2023-03-23T04:13:34;15.30;57.50
12426;DHT22;6277;49.824;9.562;2023-03-23T04:15:59;15.30;57.50
12426;DHT22;6277;49.824;9.562;2023-03-23T04:18:25;15.30;57.50
12426;DHT22;6277;49.824;9.562;2023-03-23T04:20:51;15.30;57.50
12426;DHT22;6277;49.824;9.562;2023-03-23T04:23:18;15.30;57.50
12426;DHT22;6277;49.824;9.562;2023-03-23T04:25:49;15.30;57.50
12426;DHT22;6277;49.824;9.562;2023-03-23T04:28:16;15.30;57.50
12426;DHT22;6277;49.824;9.562;2023-03-23T04:30:50;15.30;57.50
12426;DHT22;6277;49.824;9.562;2023-03-23T04:33:19;15.30;57.60
12426;DHT22;6277;49.824;9.562;2023-03-23T04:35:45;15.30;57.60
12426;DHT22;6277;49.824;9.562;2023-03-23T04:38:11;15.30;57.60
12426;DHT22;6277;49.824;9.562;2023-03-23T04:40:38;15.30;57.60
12426;DHT22;6277;49.824;9.562;2023-03-23T04:43:04;15.30;57.70
12426;DHT22;6277;49.824;9.562;2023-03-23T04:45:31;15.40;57.70
12426;DHT22;6277;49.824;9.562;2023-03-23T04:47:57;15.30;57.70
12426;DHT22;6277;49.824;9.562;2023-03-23T04:50:27;15.30;57.70
12426;DHT22;6277;49.824;9.562;2023-03-23T04:52:53;15.40;57.80
12426;DHT22;6277;49.824;9.562;2023-03-23T04:55:23;15.40;57.80
12426;DHT22;6277;49.824;9.562;2023-03-23T04:57:48;15.40;57.80
12426;DHT22;6277;49.824;9.562;2023-03-23T05:00:15;15.40;57.80
12426;DHT22;6277;49.824;9.562;2023-03-23T05:02:42;15.40;57.80
12426;DHT22;6277;49.824;9.562;2023-03-23T05:05:10;15.40;57.80
12426;DHT22;6277;49.824;9.562;2023-03-23T05:07:37;15.40;58.00
12426;DHT22;6277;49.824;9.562;2023-03-23T05:10:04;15.40;58.10
12426;DHT22;6277;49.824;9.562;2023-03-23T05:12:30;15.40;58.10
12426;DHT22;6277;49.824;9.562;2023-03-23T05:14:56;15.40;58.00
12426;DHT22;6277;49.824;9.562;2023-03-23T05:17:21;15.40;58.10
12426;DHT22;6277;49.824;9.562;2023-03-23T05:19:52;15.40;58.10
12426;DHT22;6277;49.824;9.562;2023-03-23T05:22:19;15.40;58.20
12426;DHT22;6277;49.824;9.562;2023-03-23T05:24:49;15.40;58.20
12426;DHT22;6277;49.824;9.562;2023-03-23T05:27:17;15.40;58.30
12426;DHT22;6277;49.824;9.562;2023-03-23T05:29:44;15.40;58.40
12426;DHT22;6277;49.824;9.562;2023-03-23T05:32:11;15.40;58.50
12426;DHT22;6277;49.824;9.562;2023-03-23T05:34:37;15.40;58.60
12426;DHT22;6277;49.824;9.562;2023-03-23T05:37:03;15.40;58.70
12426;DHT22;6277;49.824;9.562;2023-03-23T05:39:30;15.40;58.80
12426;DHT22;6277;49.824;9.562;2023-03-23T05:41:56;15.40;58.80
12426;DHT22;6277;49.824;9.562;2023-03-23T05:44:22;15.40;58.60
12426;DHT22;6277;49.824;9.562;2023-03-23T05:46:48;15.40;58.60
12426;DHT22;6277;49.824;9.562;2023-03-23T05:49:15;15.30;58.60
12426;DHT22;6277;49.824;9.562;2023-03-23T05:51:44;15.30;58.70
12426;DHT22;6277;49.824;9.562;2023-03-23T05:54:11;15.30;58.80
12426;DHT22;6277;49.824;9.562;2023-03-23T05:56:37;15.30;58.90
12426;DHT22;6277;49.824;9.562;2023-03-23T05:59:03;15.30;59.00
12426;DHT22;6277;49.824;9.562;2023-03-23T06:01:28;15.30;59.00
12426;DHT22;6277;49.824;9.562;2023-03-23T06:03:54;15.30;59.10
12426;DHT22;6277;49.824;9.562;2023-03-23T06:06:24;15.40;59.20
12426;DHT22;6277;49.824;9.562;2023-03-23T06:08:50;15.40;59.20
12426;DHT22;6277;49.824;9.562;2023-03-23T06:11:16;15.40;59.20
12426;DHT22;6277;49.824;9.562;2023-03-23T06:13:41;15.40;59.20
12426;DHT22;6277;49.824;9.562;2023-03-23T06:16:07;15.40;59.30
12426;DHT22;6277;49.824;9.562;2023-03-23T06:18:34;15.40;59.30
12426;DHT22;6277;49.824;9.562;2023-03-23T06:21:03;15.40;59.30
12426;DHT22;6277;49.824;9.562;2023-03-23T06:23:28;15.40;59.40
12426;DHT22;6277;49.824;9.562;2023-03-23T06:26:03;15.50;59.50
12426;DHT22;6277;49.824;9.562;2023-03-23T06:28:31;15.50;59.60
12426;DHT22;6277;49.824;9.562;2023-03-23T06:31:02;15.60;59.60
12426;DHT22;6277;49.824;9.562;2023-03-23T06:33:30;15.60;59.70
12426;DHT22;6277;49.824;9.562;2023-03-23T06:35:55;15.70;59.70
12426;DHT22;6277;49.824;9.562;2023-03-23T06:38:21;15.70;59.60
12426;DHT22;6277;49.824;9.562;2023-03-23T06:40:47;15.80;59.70
12426;DHT22;6277;49.824;9.562;2023-03-23T06:43:13;15.80;59.70
12426;DHT22;6277;49.824;9.562;2023-03-23T06:45:39;15.80;59.60
12426;DHT22;6277;49.824;9.562;2023-03-23T06:48:06;15.90;59.70
12426;DHT22;6277;49.824;9.562;2023-03-23T06:50:32;15.90;59.70
12426;DHT22;6277;49.824;9.562;2023-03-23T06:52:57;15.90;59.80
12426;DHT22;6277;49.824;9.562;2023-03-23T06:55:23;15.90;59.70
12426;DHT22;6277;49.824;9.562;2023-03-23T06:57:48;16.00;59.80
12426;DHT22;6277;49.824;9.562;2023-03-23T07:00:14;16.00;59.70
12426;DHT22;6277;49.824;9.562;2023-03-23T07:02:40;16.10;59.70
12426;DHT22;6277;49.824;9.562;2023-03-23T07:05:07;16.10;59.80
12426;DHT22;6277;49.824;9.562;2023-03-23T07:07:34;16.10;59.70
12426;DHT22;6277;49.824;9.562;2023-03-23T07:10:01;16.20;59.90
12426;DHT22;6277;49.824;9.562;2023-03-23T07:12:26;16.20;59.90
12426;DHT22;6277;49.824;9.562;2023-03-23T07:14:52;16.20;59.80
12426;DHT22;6277;49.824;9.562;2023-03-23T07:17:18;16.30;59.90
12426;DHT22;6277;49.824;9.562;2023-03-23T07:19:43;16.30;59.90
12426;DHT22;6277;49.824;9.562;2023-03-23T07:22:09;16.30;59.80
12426;DHT22;6277;49.824;9.562;2023-03-23T07:24:34;16.40;59.70
12426;DHT22;6277;49.824;9.562;2023-03-23T07:27:00;16.40;59.80
12426;DHT22;6277;49.824;9.562;2023-03-23T07:29:27;16.40;59.90
12426;DHT22;6277;49.824;9.562;2023-03-23T07:31:53;16.40;59.90
12426;DHT22;6277;49.824;9.562;2023-03-23T07:34:19;16.40;59.80
12426;DHT22;6277;49.824;9.562;2023-03-23T07:36:45;16.50;59.70
12426;DHT22;6277;49.824;9.562;2023-03-23T07:39:12;16.50;59.70
12426;DHT22;6277;49.824;9.562;2023-03-23T07:41:38;16.50;59.70
12426;DHT22;6277;49.824;9.562;2023-03-23T07:44:04;16.50;59.60
12426;DHT22;6277;49.824;9.562;2023-03-23T07:46:31;16.60;59.70
12426;DHT22;6277;49.824;9.562;2023-03-23T07:48:56;16.60;59.70
12426;DHT22;6277;49.824;9.562;2023-03-23T07:51:23;16.60;59.70
12426;DHT22;6277;49.824;9.562;2023-03-23T07:53:49;16.60;59.70
12426;DHT22;6277;49.824;9.562;2023-03-23T07:56:15;16.70;59.70
12426;DHT22;6277;49.824;9.562;2023-03-23T07:58:44;16.70;59.70
12426;DHT22;6277;49.824;9.562;2023-03-23T08:01:10;16.70;59.70
12426;DHT22;6277;49.824;9.562;2023-03-23T08:03:36;16.70;59.80
12426;DHT22;6277;49.824;9.562;2023-03-23T08:06:02;16.80;59.90
12426;DHT22;6277;49.824;9.562;2023-03-23T08:08:28;16.80;59.80
12426;DHT22;6277;49.824;9.562;2023-03-23T08:10:53;16.80;59.90
12426;DHT22;6277;49.824;9.562;2023-03-23T08:13:19;16.80;59.90
12426;DHT22;6277;49.824;9.562;2023-03-23T08:15:45;16.90;59.90
12426;DHT22;6277;49.824;9.562;2023-03-23T08:18:10;16.90;59.90
12426;DHT22;6277;49.824;9.562;2023-03-23T08:20:36;16.90;59.90
12426;DHT22;6277;49.824;9.562;2023-03-23T08:23:02;16.90;59.90
12426;DHT22;6277;49.824;9.562;2023-03-23T08:25:28;17.00;60.00
12426;DHT22;6277;49.824;9.562;2023-03-23T08:27:56;17.00;60.00
12426;DHT22;6277;49.824;9.562;2023-03-23T08:30:22;17.10;60.20
12426;DHT22;6277;49.824;9.562;2023-03-23T08:32:48;17.10;60.20
12426;DHT22;6277;49.824;9.562;2023-03-23T08:35:15;17.20;60.20
12426;DHT22;6277;49.824;9.562;2023-03-23T08:37:41;17.20;60.10
12426;DHT22;6277;49.824;9.562;2023-03-23T08:40:09;17.20;60.10
12426;DHT22;6277;49.824;9.562;2023-03-23T08:42:39;17.20;60.20
12426;DHT22;6277;49.824;9.562;2023-03-23T08:45:07;17.20;60.00
12426;DHT22;6277;49.824;9.562;2023-03-23T08:47:37;17.10;60.60
12426;DHT22;6277;49.824;9.562;2023-03-23T08:50:04;17.10;59.90
12426;DHT22;6277;49.824;9.562;2023-03-23T08:52:30;17.00;59.80
12426;DHT22;6277;49.824;9.562;2023-03-23T08:54:56;17.00;59.90
12426;DHT22;6277;49.824;9.562;2023-03-23T08:57:22;16.90;60.00
12426;DHT22;6277;49.824;9.562;2023-03-23T08:59:48;16.90;60.10
12426;DHT22;6277;49.824;9.562;2023-03-23T09:02:14;16.90;60.30
12426;DHT22;6277;49.824;9.562;2023-03-23T09:04:40;16.90;60.70
12426;DHT22;6277;49.824;9.562;2023-03-23T09:07:10;17.00;60.80
12426;DHT22;6277;49.824;9.562;2023-03-23T09:09:37;17.10;60.70
12426;DHT22;6277;49.824;9.562;2023-03-23T09:12:05;17.10;60.50
12426;DHT22;6277;49.824;9.562;2023-03-23T09:14:31;17.20;60.40
12426;DHT22;6277;49.824;9.562;2023-03-23T09:16:57;17.20;60.30
12426;DHT22;6277;49.824;9.562;2023-03-23T09:19:23;17.20;60.20
12426;DHT22;6277;49.824;9.562;2023-03-23T09:21:48;17.20;60.30
12426;DHT22;6277;49.824;9.562;2023-03-23T09:24:14;17.20;60.90
12426;DHT22;6277;49.824;9.562;2023-03-23T09:26:40;17.20;60.40
12426;DHT22;6277;49.824;9.562;2023-03-23T09:29:06;17.20;60.60
12426;DHT22;6277;49.824;9.562;2023-03-23T09:31:31;17.30;60.70
12426;DHT22;6277;49.824;9.562;2023-03-23T09:33:58;17.30;60.70
12426;DHT22;6277;49.824;9.562;2023-03-23T09:36:24;17.40;60.60
12426;DHT22;6277;49.824;9.562;2023-03-23T09:38:51;17.40;60.40
12426;DHT22;6277;49.824;9.562;2023-03-23T09:41:41;17.40;60.40
12426;DHT22;6277;49.824;9.562;2023-03-23T09:52:18;17.50;60.00
12426;DHT22;6277;49.824;9.562;2023-03-23T09:54:49;17.40;60.00
12426;DHT22;6277;49.824;9.562;2023-03-23T09:57:37;17.40;60.00
12426;DHT22;6277;49.824;9.562;2023-03-23T10:03:05;17.30;60.20
12426;DHT22;6277;49.824;9.562;2023-03-23T10:05:40;17.20;60.30
12426;DHT22;6277;49.824;9.562;2023-03-23T10:08:14;17.20;60.40
12426;DHT22;6277;49.824;9.562;2023-03-23T10:10:49;17.10;60.50
12426;DHT22;6277;49.824;9.562;2023-03-23T10:15:52;17.00;60.60
12426;DHT22;6277;49.824;9.562;2023-03-23T10:18:43;17.00;60.80
12426;DHT22;6277;49.824;9.562;2023-03-23T10:21:16;17.00;61.20
12426;DHT22;6277;49.824;9.562;2023-03-23T10:26:33;17.10;61.90
12426;DHT22;6277;49.824;9.562;2023-03-23T10:29:11;17.20;61.90
12426;DHT22;6277;49.824;9.562;2023-03-23T10:31:44;17.40;61.80
12426;DHT22;6277;49.824;9.562;2023-03-23T10:34:17;17.50;62.00
12426;DHT22;6277;49.824;9.562;2023-03-23T10:37:05;17.60;62.00
12426;DHT22;6277;49.824;9.562;2023-03-23T10:39:55;17.80;61.60
12426;DHT22;6277;49.824;9.562;2023-03-23T10:42:35;17.90;61.40
12426;DHT22;6277;49.824;9.562;2023-03-23T10:45:17;18.10;62.10
12426;DHT22;6277;49.824;9.562;2023-03-23T10:48:11;18.20;61.10
12426;DHT22;6277;49.824;9.562;2023-03-23T10:50:39;18.30;60.70
12426;DHT22;6277;49.824;9.562;2023-03-23T10:53:15;18.40;60.60
12426;DHT22;6277;49.824;9.562;2023-03-23T10:55:42;18.60;60.20
12426;DHT22;6277;49.824;9.562;2023-03-23T10:58:11;18.70;60.10
12426;DHT22;6277;49.824;9.562;2023-03-23T11:00:46;18.70;59.90
12426;DHT22;6277;49.824;9.562;2023-03-23T11:08:31;18.80;58.80
12426;DHT22;6277;49.824;9.562;2023-03-23T11:11:18;18.80;58.90
12426;DHT22;6277;49.824;9.562;2023-03-23T11:13:46;18.70;58.20
12426;DHT22;6277;49.824;9.562;2023-03-23T11:16:31;18.50;58.30
12426;DHT22;6277;49.824;9.562;2023-03-23T11:18:59;18.40;58.30
12426;DHT22;6277;49.824;9.562;2023-03-23T11:21:25;18.30;58.50
12426;DHT22;6277;49.824;9.562;2023-03-23T11:23:55;18.10;58.50
12426;DHT22;6277;49.824;9.562;2023-03-23T11:26:29;18.00;58.50
12426;DHT22;6277;49.824;9.562;2023-03-23T11:29:22;18.00;58.80
12426;DHT22;6277;49.824;9.562;2023-03-23T11:31:53;17.90;59.00
12426;DHT22;6277;49.824;9.562;2023-03-23T11:34:57;17.80;59.10
12426;DHT22;6277;49.824;9.562;2023-03-23T11:37:42;17.80;59.20
12426;DHT22;6277;49.824;9.562;2023-03-23T11:48:03;17.50;59.40
12426;DHT22;6277;49.824;9.562;2023-03-23T11:51:16;17.40;59.70
12426;DHT22;6277;49.824;9.562;2023-03-23T11:56:37;17.30;60.00
12426;DHT22;6277;49.824;9.562;2023-03-23T11:59:12;17.20;60.00
12426;DHT22;6277;49.824;9.562;2023-03-23T12:12:55;17.20;60.40
12426;DHT22;6277;49.824;9.562;2023-03-23T12:15:25;17.20;60.60
12426;DHT22;6277;49.824;9.562;2023-03-23T12:20:43;17.20;60.50
12426;DHT22;6277;49.824;9.562;2023-03-23T12:23:33;17.20;60.70
12426;DHT22;6277;49.824;9.562;2023-03-23T12:26:22;17.20;60.70
12426;DHT22;6277;49.824;9.562;2023-03-23T12:33:57;17.30;61.10
12426;DHT22;6277;49.824;9.562;2023-03-23T12:36:43;17.30;61.40
12426;DHT22;6277;49.824;9.562;2023-03-23T12:47:32;17.70;61.90
12426;DHT22;6277;49.824;9.562;2023-03-23T12:50:15;17.80;61.80
12426;DHT22;6277;49.824;9.562;2023-03-23T12:55:35;18.00;62.10
12426;DHT22;6277;49.824;9.562;2023-03-23T13:00:59;18.20;61.80
12426;DHT22;6277;49.824;9.562;2023-03-23T13:06:09;18.50;61.60
12426;DHT22;6277;49.824;9.562;2023-03-23T13:09:17;18.60;61.10
12426;DHT22;6277;49.824;9.562;2023-03-23T13:11:44;18.70;60.70
12426;DHT22;6277;49.824;9.562;2023-03-23T13:14:29;18.70;60.70
12426;DHT22;6277;49.824;9.562;2023-03-23T13:22:53;18.90;59.90
12426;DHT22;6277;49.824;9.562;2023-03-23T13:25:29;19.00;60.00
12426;DHT22;6277;49.824;9.562;2023-03-23T13:28:00;19.00;60.00
12426;DHT22;6277;49.824;9.562;2023-03-23T13:30:27;19.20;60.00
12426;DHT22;6277;49.824;9.562;2023-03-23T13:33:02;19.20;59.50
12426;DHT22;6277;49.824;9.562;2023-03-23T13:35:34;19.20;59.20
12426;DHT22;6277;49.824;9.562;2023-03-23T13:38:00;19.30;59.10
12426;DHT22;6277;49.824;9.562;2023-03-23T13:40:29;19.30;59.50
12426;DHT22;6277;49.824;9.562;2023-03-23T13:42:57;19.30;59.20
12426;DHT22;6277;49.824;9.562;2023-03-23T13:51:21;19.10;58.30
12426;DHT22;6277;49.824;9.562;2023-03-23T13:53:48;19.00;57.90
12426;DHT22;6277;49.824;9.562;2023-03-23T13:56:21;18.90;58.40
12426;DHT22;6277;49.824;9.562;2023-03-23T13:58:50;18.80;58.10
12426;DHT22;6277;49.824;9.562;2023-03-23T14:01:19;18.70;58.30
12426;DHT22;6277;49.824;9.562;2023-03-23T14:03:54;18.60;58.40
12426;DHT22;6277;49.824;9.562;2023-03-23T14:06:21;18.50;58.20
12426;DHT22;6277;49.824;9.562;2023-03-23T14:08:52;18.40;58.60
12426;DHT22;6277;49.824;9.562;2023-03-23T14:11:27;18.40;58.80
12426;DHT22;6277;49.824;9.562;2023-03-23T14:14:07;18.30;58.80
12426;DHT22;6277;49.824;9.562;2023-03-23T14:16:43;18.30;58.90
12426;DHT22;6277;49.824;9.562;2023-03-23T14:19:23;18.20;58.90
12426;DHT22;6277;49.824;9.562;2023-03-23T14:21:57;18.20;58.90
12426;DHT22;6277;49.824;9.562;2023-03-23T14:24:29;18.10;58.80
12426;DHT22;6277;49.824;9.562;2023-03-23T14:29:30;18.00;58.90
12426;DHT22;6277;49.824;9.562;2023-03-23T14:31:58;18.00;59.10
12426;DHT22;6277;49.824;9.562;2023-03-23T14:34:27;17.90;59.30
12426;DHT22;6277;49.824;9.562;2023-03-23T14:36:54;17.80;59.30
12426;DHT22;6277;49.824;9.562;2023-03-23T14:41:47;17.80;59.50
12426;DHT22;6277;49.824;9.562;2023-03-23T14:44:17;17.80;59.60
12426;DHT22;6277;49.824;9.562;2023-03-23T14:46:44;17.70;59.60
12426;DHT22;6277;49.824;9.562;2023-03-23T14:49:13;17.70;59.70
12426;DHT22;6277;49.824;9.562;2023-03-23T14:51:51;17.60;59.70
12426;DHT22;6277;49.824;9.562;2023-03-23T14:54:27;17.60;59.70
12426;DHT22;6277;49.824;9.562;2023-03-23T14:56:55;17.60;59.70
12426;DHT22;6277;49.824;9.562;2023-03-23T14:59:21;17.50;59.70
12426;DHT22;6277;49.824;9.562;2023-03-23T15:01:49;17.50;59.80
12426;DHT22;6277;49.824;9.562;2023-03-23T15:04:23;17.40;59.80
12426;DHT22;6277;49.824;9.562;2023-03-23T15:06:58;17.40;59.90
12426;DHT22;6277;49.824;9.562;2023-03-23T15:09:25;17.30;59.90
12426;DHT22;6277;49.824;9.562;2023-03-23T15:11:55;17.30;60.00
12426;DHT22;6277;49.824;9.562;2023-03-23T15:14:24;17.30;60.10
12426;DHT22;6277;49.824;9.562;2023-03-23T15:16:53;17.20;60.10
12426;DHT22;6277;49.824;9.562;2023-03-23T15:19:32;17.20;60.10
12426;DHT22;6277;49.824;9.562;2023-03-23T15:22:07;17.20;60.30
12426;DHT22;6277;49.824;9.562;2023-03-23T15:24:39;17.20;60.40
12426;DHT22;6277;49.824;9.562;2023-03-23T15:27:27;17.10;60.50
12426;DHT22;6277;49.824;9.562;2023-03-23T15:29:55;17.10;60.80
12426;DHT22;6277;49.824;9.562;2023-03-23T15:32:27;17.10;60.60
12426;DHT22;6277;49.824;9.562;2023-03-23T15:34:53;17.10;60.90
12426;DHT22;6277;49.824;9.562;2023-03-23T15:37:29;17.00;60.80
12426;DHT22;6277;49.824;9.562;2023-03-23T15:39:56;17.00;61.10
12426;DHT22;6277;49.824;9.562;2023-03-23T15:42:28;17.00;61.20
12426;DHT22;6277;49.824;9.562;2023-03-23T15:47:44;16.90;61.60
12426;DHT22;6277;49.824;9.562;2023-03-23T15:50:16;16.90;61.70
12426;DHT22;6277;49.824;9.562;2023-03-23T15:52:43;16.90;61.70
12426;DHT22;6277;49.824;9.562;2023-03-23T15:55:27;16.80;61.60
12426;DHT22;6277;49.824;9.562;2023-03-23T15:57:55;16.80;62.10
12426;DHT22;6277;49.824;9.562;2023-03-23T16:00:23;16.80;61.80
12426;DHT22;6277;49.824;9.562;2023-03-23T16:02:55;16.70;61.80
12426;DHT22;6277;49.824;9.562;2023-03-23T16:05:21;16.70;62.20
12426;DHT22;6277;49.824;9.562;2023-03-23T16:07:47;16.70;62.00
12426;DHT22;6277;49.824;9.562;2023-03-23T16:10:17;16.70;62.10
12426;DHT22;6277;49.824;9.562;2023-03-23T16:12:43;16.70;62.30
12426;DHT22;6277;49.824;9.562;2023-03-23T16:15:09;16.70;62.40
12426;DHT22;6277;49.824;9.562;2023-03-23T16:17:35;16.80;62.50
12426;DHT22;6277;49.824;9.562;2023-03-23T16:20:01;16.80;62.50
12426;DHT22;6277;49.824;9.562;2023-03-23T16:22:28;16.80;62.50
12426;DHT22;6277;49.824;9.562;2023-03-23T16:24:54;16.80;62.40
12426;DHT22;6277;49.824;9.562;2023-03-23T16:27:19;16.80;62.30
12426;DHT22;6277;49.824;9.562;2023-03-23T16:29:46;16.90;62.30
12426;DHT22;6277;49.824;9.562;2023-03-23T16:32:11;16.80;62.10
12426;DHT22;6277;49.824;9.562;2023-03-23T16:34:37;16.80;62.20
12426;DHT22;6277;49.824;9.562;2023-03-23T16:37:03;16.80;62.10
12426;DHT22;6277;49.824;9.562;2023-03-23T16:39:28;16.80;62.20
12426;DHT22;6277;49.824;9.562;2023-03-23T16:41:54;16.70;62.10
12426;DHT22;6277;49.824;9.562;2023-03-23T16:44:20;16.70;62.20
12426;DHT22;6277;49.824;9.562;2023-03-23T16:46:45;16.70;62.20
12426;DHT22;6277;49.824;9.562;2023-03-23T16:49:11;16.60;62.20
12426;DHT22;6277;49.824;9.562;2023-03-23T16:51:36;16.60;62.30
12426;DHT22;6277;49.824;9.562;2023-03-23T16:54:02;16.60;62.30
12426;DHT22;6277;49.824;9.562;2023-03-23T16:56:27;16.60;62.40
12426;DHT22;6277;49.824;9.562;2023-03-23T16:58:53;16.60;62.40
12426;DHT22;6277;49.824;9.562;2023-03-23T17:01:18;16.60;62.50
12426;DHT22;6277;49.824;9.562;2023-03-23T17:03:44;16.60;62.40
12426;DHT22;6277;49.824;9.562;2023-03-23T17:06:09;16.50;62.40
12426;DHT22;6277;49.824;9.562;2023-03-23T17:08:35;16.50;62.40
12426;DHT22;6277;49.824;9.562;2023-03-23T17:11:01;16.50;62.40
12426;DHT22;6277;49.824;9.562;2023-03-23T17:13:26;16.50;62.50
12426;DHT22;6277;49.824;9.562;2023-03-23T17:15:54;16.50;62.50
12426;DHT22;6277;49.824;9.562;2023-03-23T17:18:21;16.50;62.50
12426;DHT22;6277;49.824;9.562;2023-03-23T17:20:47;16.50;63.10
12426;DHT22;6277;49.824;9.562;2023-03-23T17:23:12;16.50;62.50
12426;DHT22;6277;49.824;9.562;2023-03-23T17:25:38;16.50;62.50
12426;DHT22;6277;49.824;9.562;2023-03-23T17:28:03;16.50;62.50
12426;DHT22;6277;49.824;9.562;2023-03-23T17:30:29;16.40;62.40
12426;DHT22;6277;49.824;9.562;2023-03-23T17:32:54;16.40;62.50
12426;DHT22;6277;49.824;9.562;2023-03-23T17:35:20;16.40;62.50
12426;DHT22;6277;49.824;9.562;2023-03-23T17:37:46;16.40;62.50
12426;DHT22;6277;49.824;9.562;2023-03-23T17:40:11;16.40;62.60
12426;DHT22;6277;49.824;9.562;2023-03-23T17:42:38;16.40;62.60
12426;DHT22;6277;49.824;9.562;2023-03-23T17:45:05;16.40;62.60
12426;DHT22;6277;49.824;9.562;2023-03-23T17:47:32;16.40;62.70
12426;DHT22;6277;49.824;9.562;2023-03-23T17:49:58;16.40;62.70
12426;DHT22;6277;49.824;9.562;2023-03-23T17:52:23;16.30;62.60